Time;durP1;ratioP1;P1;durP2;ratioP2;P2;SDS_P1;SDS_P2;PMS_P1;PMS_P2;Temp;Humidity;BMP_temperature;BMP_pressure;BME280_temperature;BME280_humidity;BME280_pressure;Samples;Min_cycle;Max_cycle;Signal;HPM_P1;HPM_P2
2022/10/15 00:02:03;;;;;;;50.95;25.50;;;;;;;11.38;100.00;100426.09;5041798;28;20040;-81
2022/10/15 00:04:30;;;;;;;54.95;27.48;;;;;;;11.42;100.00;100435.75;5022974;28;20028;-81
2022/10/15 00:06:55;;;;;;;52.22;25.25;;;;;;;11.40;100.00;100413.97;5038836;28;20104;-81
2022/10/15 00:09:21;;;;;;;56.83;26.75;;;;;;;11.49;100.00;100427.84;5061924;28;20099;-81
2022/10/15 00:11:46;;;;;;;134.65;30.83;;;;;;;11.50;100.00;100435.94;5041660;28;20532;-81
2022/10/15 00:14:11;;;;;;;140.35;32.45;;;;;;;11.45;100.00;100434.63;5023858;28;20115;-81
2022/10/15 00:16:37;;;;;;;148.98;35.17;;;;;;;11.45;100.00;100438.25;5019340;28;20060;-81
2022/10/15 00:19:03;;;;;;;147.82;34.97;;;;;;;11.44;100.00;100438.38;5037212;28;20112;-81
2022/10/15 00:21:28;;;;;;;131.50;34.63;;;;;;;11.44;100.00;100432.88;5050973;28;20024;-81
2022/10/15 00:23:54;;;;;;;116.10;34.25;;;;;;;11.45;100.00;100440.13;5057123;28;20116;-81
2022/10/15 00:26:23;;;;;;;183.95;38.08;;;;;;;11.45;100.00;100440.13;5056340;28;20040;-81
2022/10/15 00:28:50;;;;;;;146.07;36.92;;;;;;;11.49;100.00;100439.69;5057014;28;20029;-80
2022/10/15 00:31:19;;;;;;;178.38;35.65;;;;;;;11.48;100.00;100442.56;5044758;28;20444;-80
2022/10/15 00:33:47;;;;;;;124.38;33.60;;;;;;;11.40;100.00;100443.28;5037620;28;20021;-81
2022/10/15 00:36:18;;;;;;;232.30;35.15;;;;;;;11.42;100.00;100435.75;5043651;28;20043;-80
2022/10/15 00:38:43;;;;;;;182.43;34.45;;;;;;;11.37;100.00;100438.91;5061140;28;20020;-81
2022/10/15 00:41:15;;;;;;;112.60;31.70;;;;;;;11.42;100.00;100445.88;5064200;28;20039;-81
2022/10/15 00:43:50;;;;;;;85.22;29.73;;;;;;;11.38;100.00;100434.31;5058621;28;20039;-81
2022/10/15 00:46:29;;;;;;;96.63;30.63;;;;;;;11.38;100.00;100448.03;5055698;28;20043;-81
2022/10/15 00:49:01;;;;;;;87.75;30.13;;;;;;;11.33;100.00;100432.00;5039844;28;20174;-81
2022/10/15 00:51:32;;;;;;;78.77;31.20;;;;;;;11.31;100.00;100436.72;5051321;28;20042;-81
2022/10/15 00:53:59;;;;;;;77.38;30.67;;;;;;;11.31;100.00;100431.22;5048251;28;20163;-81
2022/10/15 00:56:26;;;;;;;87.22;30.80;;;;;;;11.31;100.00;100441.34;5040184;28;20099;-82
2022/10/15 00:58:53;;;;;;;81.05;33.13;;;;;;;11.30;100.00;100448.69;5058265;28;20114;-81
2022/10/15 01:01:20;;;;;;;83.90;33.45;;;;;;;11.43;100.00;100448.47;5039440;28;20125;-81
2022/10/15 01:03:45;;;;;;;85.00;35.60;;;;;;;11.51;100.00;100450.50;5056660;28;20354;-82
2022/10/15 01:06:11;;;;;;;99.32;38.88;;;;;;;11.60;100.00;100452.44;5055671;28;20043;-81
2022/10/15 01:08:36;;;;;;;103.47;42.28;;;;;;;11.64;100.00;100444.78;5055759;28;20083;-82
2022/10/15 01:11:25;;;;;;;99.10;41.60;;;;;;;11.73;100.00;100444.84;5057557;28;20039;-82
2022/10/15 01:13:57;;;;;;;109.43;44.70;;;;;;;11.75;100.00;100450.19;5055857;28;20040;-82
2022/10/15 01:16:44;;;;;;;107.18;44.60;;;;;;;11.80;100.00;100438.78;5038868;28;20094;-82
2022/10/15 01:19:34;;;;;;;108.75;46.03;;;;;;;11.87;100.00;100450.94;5041953;28;20036;-80
2022/10/15 01:21:59;;;;;;;121.88;47.63;;;;;;;11.87;100.00;100449.06;5056535;28;20037;-80
2022/10/15 01:24:59;;;;;;;121.85;48.85;;;;;;;11.93;100.00;100450.41;5038316;28;20180;-81
2022/10/15 01:27:33;;;;;;;120.57;48.20;;;;;;;11.93;100.00;100443.03;5046740;28;20587;-81
2022/10/15 01:30:19;;;;;;;130.90;49.40;;;;;;;11.94;100.00;100447.53;5049223;28;20032;-80
2022/10/15 01:32:56;;;;;;;129.82;51.28;;;;;;;11.96;100.00;100444.66;5038386;28;20029;-81
2022/10/15 01:35:59;;;;;;;125.57;50.20;;;;;;;12.02;100.00;100437.72;5057076;28;20045;-81
2022/10/15 01:38:39;;;;;;;;;;;;;;;12.05;100.00;100437.44;5001069;28;20204;-81
2022/10/15 01:41:12;;;;;;;120.22;47.65;;;;;;;11.99;100.00;100421.56;5046619;28;19931;-81
2022/10/15 01:43:43;;;;;;;120.85;48.47;;;;;;;12.03;100.00;100412.88;5054654;28;20033;-81
2022/10/15 01:46:22;;;;;;;120.90;49.50;;;;;;;12.09;100.00;100417.81;5055340;28;20040;-81
2022/10/15 01:48:51;;;;;;;111.05;48.90;;;;;;;12.09;100.00;100416.94;5042942;28;20040;-81
2022/10/15 01:51:19;;;;;;;117.35;48.40;;;;;;;12.11;100.00;100412.19;5055417;28;20037;-81
2022/10/15 01:53:46;;;;;;;108.90;48.15;;;;;;;12.16;100.00;100403.53;5053509;28;20103;-81
2022/10/15 01:56:19;;;;;;;116.53;48.63;;;;;;;12.14;100.00;100400.91;5056822;28;20036;-81
2022/10/15 01:58:47;;;;;;;116.05;47.85;;;;;;;12.19;100.00;100403.25;5055224;28;20029;-81
2022/10/15 02:01:14;;;;;;;119.40;49.03;;;;;;;12.18;100.00;100402.34;5054171;28;20124;-81
2022/10/15 02:03:47;;;;;;;117.45;49.80;;;;;;;12.16;100.00;100396.16;5038839;28;20112;-81
2022/10/15 02:06:21;;;;;;;115.40;48.92;;;;;;;12.18;100.00;100390.50;5035268;28;20437;-81
2022/10/15 02:09:09;;;;;;;112.28;47.55;;;;;;;12.21;100.00;100384.75;5068636;28;20477;-81
2022/10/15 02:12:09;;;;;;;115.72;48.85;;;;;;;12.12;100.00;100376.34;5055761;28;20036;-81
2022/10/15 02:14:53;;;;;;;116.72;48.15;;;;;;;12.20;100.00;100378.38;5028486;28;20543;-81
2022/10/15 02:17:28;;;;;;;118.85;48.15;;;;;;;12.20;100.00;100389.38;5043634;28;20519;-81
2022/10/15 02:19:59;;;;;;;109.35;49.25;;;;;;;12.23;100.00;100394.56;5055910;28;20036;-80
2022/10/15 02:22:45;;;;;;;115.20;48.63;;;;;;;12.23;100.00;100396.44;5055039;28;20033;-80
2022/10/15 02:25:18;;;;;;;110.30;47.47;;;;;;;12.22;100.00;100398.31;5053446;28;20115;-80
2022/10/15 02:27:47;;;;;;;118.13;48.40;;;;;;;12.20;100.00;100392.13;5043076;28;20033;-80
2022/10/15 02:30:14;;;;;;;120.38;51.03;;;;;;;12.19;100.00;100389.50;5053007;28;20037;-81
2022/10/15 02:32:40;;;;;;;119.25;49.17;;;;;;;12.23;100.00;100385.47;5055408;28;20064;-80
2022/10/15 02:35:08;;;;;;;118.97;51.22;;;;;;;12.26;100.00;100387.91;5037084;28;20103;-80
2022/10/15 02:37:35;;;;;;;123.18;50.90;;;;;;;12.24;100.00;100374.34;5050084;28;20037;-80
2022/10/15 02:40:00;;;;;;;120.50;49.03;;;;;;;12.28;100.00;100380.41;5038738;28;20029;-80
2022/10/15 02:42:26;;;;;;;119.07;48.38;;;;;;;12.19;100.00;100367.56;5054777;28;20044;-80
2022/10/15 02:44:52;;;;;;;111.28;47.08;;;;;;;12.23;100.00;100363.50;5057194;28;20048;-80
2022/10/15 02:47:17;;;;;;;116.97;48.83;;;;;;;12.25;100.00;100378.81;5055830;28;20505;-80
2022/10/15 02:49:43;;;;;;;116.40;47.50;;;;;;;12.23;100.00;100366.25;5055330;28;20094;-80
2022/10/15 02:52:08;;;;;;;122.15;47.42;;;;;;;12.21;100.00;100358.16;5056362;28;20040;-80
2022/10/15 02:54:34;;;;;;;125.88;49.13;;;;;;;12.25;100.00;100356.00;5041379;28;20040;-80
2022/10/15 02:56:59;;;;;;;109.32;46.65;;;;;;;12.26;100.00;100357.72;5058454;28;20067;-80
2022/10/15 02:59:25;;;;;;;121.05;47.58;;;;;;;12.16;100.00;100340.41;5059225;28;20561;-80
2022/10/15 03:01:50;;;;;;;111.45;46.67;;;;;;;12.24;100.00;100357.88;5058454;28;20083;-80
2022/10/15 03:04:15;;;;;;;113.38;47.88;;;;;;;12.25;100.00;100361.50;5052803;28;20037;-80
2022/10/15 03:06:41;;;;;;;110.63;46.92;;;;;;;12.24;100.00;100359.75;5027682;28;20078;-81
2022/10/15 03:09:06;;;;;;;112.35;46.85;;;;;;;12.24;100.00;100355.13;5056161;28;20032;-80
2022/10/15 03:11:32;;;;;;;108.53;45.67;;;;;;;12.25;100.00;100345.88;5055724;28;20040;-80
2022/10/15 03:13:57;;;;;;;113.88;45.42;;;;;;;12.24;100.00;100352.38;5054919;28;20131;-79
2022/10/15 03:16:23;;;;;;;115.22;44.72;;;;;;;12.18;100.00;100347.44;5010323;28;20128;-80
2022/10/15 03:18:48;;;;;;;109.35;45.33;;;;;;;12.18;100.00;100350.19;5058355;28;20067;-80
2022/10/15 03:21:14;;;;;;;105.18;44.78;;;;;;;12.20;100.00;100344.56;5058057;28;20033;-80
2022/10/15 03:23:39;;;;;;;107.50;44.15;;;;;;;12.18;100.00;100354.84;5041510;28;20041;-80
2022/10/15 03:26:05;;;;;;;128.00;45.35;;;;;;;12.17;100.00;100351.22;5056429;28;20045;-80
2022/10/15 03:28:30;;;;;;;105.18;44.10;;;;;;;12.11;100.00;100357.28;5040884;28;20129;-80
2022/10/15 03:30:56;;;;;;;111.38;44.85;;;;;;;12.13;100.00;100356.16;5024416;28;20365;-80
2022/10/15 03:33:21;;;;;;;103.97;44.05;;;;;;;12.19;100.00;100342.84;5041270;28;20036;-80
2022/10/15 03:35:47;;;;;;;102.95;41.70;;;;;;;12.16;100.00;100341.25;5041290;28;20021;-80
2022/10/15 03:38:12;;;;;;;110.85;41.83;;;;;;;12.14;100.00;100344.13;5008388;28;20396;-80
2022/10/15 03:40:38;;;;;;;97.45;39.30;;;;;;;12.17;100.00;100347.59;5056705;28;20387;-81
2022/10/15 03:43:03;;;;;;;102.63;40.17;;;;;;;12.19;100.00;100348.34;5053180;28;20032;-80
2022/10/15 03:45:28;;;;;;;107.05;40.92;;;;;;;12.20;100.00;100344.56;5061378;28;20033;-80
2022/10/15 03:47:54;;;;;;;98.15;39.92;;;;;;;12.08;100.00;100322.75;5067014;28;20044;-80
2022/10/15 03:50:19;;;;;;;106.40;40.80;;;;;;;12.19;100.00;100335.47;5065856;28;20049;-80
2022/10/15 03:52:45;;;;;;;105.13;39.78;;;;;;;12.15;100.00;100331.31;5077376;28;20024;-81
2022/10/15 03:55:10;;;;;;;98.07;39.53;;;;;;;12.19;100.00;100340.09;5057507;28;20052;-80
2022/10/15 03:57:37;;;;;;;98.82;38.03;;;;;;;12.21;100.00;100344.44;5056970;28;20477;-80
2022/10/15 04:00:05;;;;;;;100.38;38.30;;;;;;;12.21;100.00;100338.94;5040836;28;20035;-82
2022/10/15 04:02:30;;;;;;;108.90;39.70;;;;;;;12.23;100.00;100341.53;5055543;28;20041;-80
2022/10/15 04:04:56;;;;;;;103.65;37.95;;;;;;;12.21;100.00;100330.69;5047180;28;20499;-80
2022/10/15 04:07:21;;;;;;;102.85;36.85;;;;;;;12.19;100.00;100335.47;5055475;28;20037;-80
2022/10/15 04:09:47;;;;;;;103.53;37.50;;;;;;;12.17;100.00;100328.38;5057013;28;20029;-80
2022/10/15 04:12:12;;;;;;;107.63;37.53;;;;;;;12.21;100.00;100343.56;5035787;28;20057;-80
2022/10/15 04:14:39;;;;;;;96.97;36.05;;;;;;;12.27;100.00;100343.84;5038533;28;20044;-80
2022/10/15 04:17:05;;;;;;;97.13;36.95;;;;;;;12.28;100.00;100359.31;5037115;28;20052;-79
2022/10/15 04:19:30;;;;;;;102.68;36.28;;;;;;;12.26;100.00;100350.34;5058846;28;20048;-79
2022/10/15 04:21:56;;;;;;;96.45;35.88;;;;;;;12.22;100.00;100335.19;5032726;28;20033;-80
2022/10/15 04:24:21;;;;;;;102.95;36.85;;;;;;;12.30;100.00;100343.56;5040073;28;20043;-80
2022/10/15 04:26:47;;;;;;;101.15;35.70;;;;;;;12.30;100.00;100349.06;5058891;28;20486;-80
2022/10/15 04:29:13;;;;;;;101.93;36.22;;;;;;;12.33;100.00;100345.16;5037640;28;20042;-80
2022/10/15 04:31:38;;;;;;;109.22;38.33;;;;;;;12.36;100.00;100349.47;5046998;28;20052;-80
2022/10/15 04:34:04;;;;;;;109.57;37.83;;;;;;;12.35;100.00;100345.00;5057120;28;20484;-80
2022/10/15 04:36:29;;;;;;;112.60;38.90;;;;;;;12.35;100.00;100350.47;5060638;28;20028;-79
2022/10/15 04:38:55;;;;;;;111.82;38.88;;;;;;;12.37;100.00;100337.50;5065365;28;20071;-80
2022/10/15 04:41:20;;;;;;;116.97;39.53;;;;;;;12.40;100.00;100346.31;5051459;28;20038;-80
2022/10/15 04:43:46;;;;;;;126.85;41.95;;;;;;;12.39;100.00;100343.69;5030486;28;20041;-80
2022/10/15 04:46:12;;;;;;;132.50;42.15;;;;;;;12.37;100.00;100337.50;5057362;28;20025;-80
2022/10/15 04:48:38;;;;;;;124.47;41.53;;;;;;;12.40;100.00;100340.81;5056041;28;20033;-80
2022/10/15 04:51:12;;;;;;;129.63;41.75;;;;;;;12.42;100.00;100346.16;5057407;28;20425;-80
2022/10/15 04:53:37;;;;;;;127.82;43.53;;;;;;;12.41;100.00;100333.44;5063592;28;20043;-80
2022/10/15 04:56:06;;;;;;;124.10;41.60;;;;;;;12.44;100.00;100334.00;5040602;28;20033;-81
2022/10/15 04:58:32;;;;;;;137.68;44.65;;;;;;;12.37;100.00;100329.25;5056215;28;20041;-81
2022/10/15 05:01:06;;;;;;;152.48;45.58;;;;;;;12.38;100.00;100328.22;5056564;28;20061;-80
2022/10/15 05:03:32;;;;;;;141.65;42.78;;;;;;;12.37;100.00;100316.38;5068801;28;20033;-80
2022/10/15 05:06:06;;;;;;;142.15;45.10;;;;;;;12.38;100.00;100325.50;5055506;28;20041;-80
2022/10/15 05:08:34;;;;;;;152.77;44.78;;;;;;;12.39;100.00;100332.72;5055305;28;20033;-80
2022/10/15 05:11:01;;;;;;;147.23;45.20;;;;;;;12.42;100.00;100332.44;5055765;28;20060;-81
2022/10/15 05:13:27;;;;;;;151.13;45.33;;;;;;;12.45;100.00;100340.38;5036396;28;20041;-81
2022/10/15 05:15:53;;;;;;;136.15;43.10;;;;;;;12.48;100.00;100340.09;5046469;28;20033;-80
2022/10/15 05:18:18;;;;;;;140.95;43.22;;;;;;;12.48;100.00;100348.31;5053198;28;20074;-79
2022/10/15 05:20:44;;;;;;;138.45;43.53;;;;;;;12.48;100.00;100343.69;5023028;28;20032;-79
2022/10/15 05:23:09;;;;;;;137.95;42.97;;;;;;;12.52;100.00;100347.00;5057392;28;20051;-80
2022/10/15 05:25:35;;;;;;;138.80;43.30;;;;;;;12.52;100.00;100352.50;5058495;28;20028;-79
2022/10/15 05:28:00;;;;;;;139.35;44.40;;;;;;;12.52;100.00;100352.50;5057211;28;20094;-79
2022/10/15 05:30:26;;;;;;;136.73;42.17;;;;;;;12.52;100.00;100355.25;5022322;28;20037;-79
2022/10/15 05:32:52;;;;;;;149.80;43.83;;;;;;;12.55;100.00;100354.94;5040434;28;20515;-80
2022/10/15 05:35:17;;;;;;;126.85;42.50;;;;;;;12.54;100.00;100355.97;5039626;28;20120;-79
2022/10/15 05:37:43;;;;;;;124.93;40.58;;;;;;;12.61;100.00;100357.13;5054593;28;20115;-80
2022/10/15 05:40:09;;;;;;;125.97;42.70;;;;;;;12.57;100.00;100352.06;5050473;28;20024;-82
2022/10/15 05:42:34;;;;;;;121.80;42.22;;;;;;;12.57;100.00;100347.44;5056816;28;20037;-80
2022/10/15 05:45:00;;;;;;;133.55;41.35;;;;;;;12.57;100.00;100344.69;5022471;28;20029;-80
2022/10/15 05:47:25;;;;;;;115.05;38.88;;;;;;;12.56;100.00;100344.81;5038283;28;20033;-79
2022/10/15 05:49:51;;;;;;;117.00;39.45;;;;;;;12.59;100.00;100359.16;5036057;28;20465;-79
2022/10/15 05:52:16;;;;;;;116.53;38.97;;;;;;;12.64;100.00;100356.84;5037175;28;20450;-78
2022/10/15 05:54:42;;;;;;;109.90;39.65;;;;;;;12.64;100.00;100361.44;5054200;28;20041;-81
2022/10/15 05:57:07;;;;;;;115.88;38.97;;;;;;;12.64;100.00;100354.09;5052233;28;20116;-81
2022/10/15 05:59:33;;;;;;;107.03;38.58;;;;;;;12.61;100.00;100348.88;5036337;28;20060;-81
2022/10/15 06:01:58;;;;;;;98.28;35.65;;;;;;;12.64;100.00;100348.59;5019766;28;20468;-81
2022/10/15 06:04:23;;;;;;;106.65;36.50;;;;;;;12.62;100.00;100347.84;5051576;28;20049;-82
2022/10/15 06:06:49;;;;;;;106.28;36.05;;;;;;;12.63;100.00;100344.09;5051109;28;20056;-81
2022/10/15 06:09:14;;;;;;;90.18;34.20;;;;;;;12.66;100.00;100340.22;5020213;28;20392;-81
2022/10/15 06:11:39;;;;;;;95.35;34.97;;;;;;;12.67;100.00;100337.31;5040066;28;20025;-80
2022/10/15 06:14:05;;;;;;;101.95;38.47;;;;;;;12.66;100.00;100340.22;5038705;28;20032;-81
2022/10/15 06:16:32;;;;;;;105.00;36.33;;;;;;;12.62;100.00;100336.00;5002519;28;20053;-82
2022/10/15 06:18:57;;;;;;;93.90;33.92;;;;;;;12.66;100.00;100335.56;5037636;28;20029;-80
2022/10/15 06:21:23;;;;;;;92.43;35.78;;;;;;;12.65;100.00;100344.81;5055626;28;20094;-81
2022/10/15 06:23:48;;;;;;;92.88;34.63;;;;;;;12.67;100.00;100345.56;5061072;28;20062;-81
2022/10/15 06:26:14;;;;;;;118.60;36.63;;;;;;;12.69;100.00;100349.00;5035895;28;20358;-82
2022/10/15 06:28:39;;;;;;;88.13;32.90;;;;;;;12.71;100.00;100345.22;5045239;28;20041;-82
2022/10/15 06:31:06;;;;;;;90.00;34.13;;;;;;;12.71;100.00;100334.25;5047257;28;20035;-82
2022/10/15 06:33:32;;;;;;;84.82;33.25;;;;;;;12.73;100.00;100344.06;5076613;28;20120;-81
2022/10/15 06:36:06;;;;;;;84.03;31.73;;;;;;;12.73;100.00;100346.81;5049633;28;20061;-82
2022/10/15 06:38:32;;;;;;;67.30;29.27;;;;;;;12.74;100.00;100344.94;5042357;28;20037;-82
2022/10/15 06:40:57;;;;;;;71.90;29.17;;;;;;;12.74;100.00;100342.19;5060310;28;20039;-81
2022/10/15 06:43:23;;;;;;;77.38;28.95;;;;;;;12.73;100.00;100338.59;5027467;28;20115;-81
2022/10/15 06:45:49;;;;;;;78.38;29.50;;;;;;;12.72;100.00;100344.22;5057181;28;20131;-81
2022/10/15 06:48:14;;;;;;;84.10;30.65;;;;;;;12.72;100.00;100345.06;5043075;28;20115;-80
2022/10/15 06:50:39;;;;;;;84.60;31.92;;;;;;;12.78;100.00;100354.63;5038905;28;20073;-81
2022/10/15 06:53:05;;;;;;;76.38;28.58;;;;;;;12.77;100.00;100352.88;5076363;28;20032;-81
2022/10/15 06:55:31;;;;;;;95.35;30.83;;;;;;;12.78;100.00;100351.88;5061083;28;20459;-81
2022/10/15 06:57:57;;;;;;;82.93;30.67;;;;;;;12.82;100.00;100356.94;5064449;28;20020;-78
2022/10/15 07:00:24;;;;;;;71.10;28.95;;;;;;;12.84;100.00;100354.91;5063585;28;20035;-80
2022/10/15 07:02:50;;;;;;;81.63;31.73;;;;;;;12.85;100.00;100353.91;5043902;28;20488;-79
2022/10/15 07:05:17;;;;;;;90.10;31.02;;;;;;;12.91;100.00;100346.06;5044331;28;20558;-81
2022/10/15 07:07:49;;;;;;;87.72;33.47;;;;;;;12.91;100.00;100340.56;5062291;28;20063;-81
2022/10/15 07:10:15;;;;;;;79.05;30.77;;;;;;;12.90;100.00;100334.19;5061528;28;20037;-81
2022/10/15 07:12:40;;;;;;;83.30;31.77;;;;;;;12.93;100.00;100331.16;5062527;28;20083;-80
2022/10/15 07:15:06;;;;;;;76.25;30.95;;;;;;;12.95;100.00;100331.00;5061221;28;20469;-80
2022/10/15 07:17:34;;;;;;;78.32;30.17;;;;;;;12.95;100.00;100326.34;5042031;28;20046;-79
2022/10/15 07:19:59;;;;;;;81.30;31.25;;;;;;;13.00;100.00;100345.16;5034066;28;20087;-79
2022/10/15 07:22:24;;;;;;;84.63;31.75;;;;;;;13.01;100.00;100339.50;5027622;28;20044;-80
2022/10/15 07:24:50;;;;;;;85.85;30.90;;;;;;;13.00;100.00;100346.03;5039787;28;20474;-80
2022/10/15 07:27:15;;;;;;;75.82;30.33;;;;;;;13.00;100.00;100346.03;5052699;28;20048;-80
2022/10/15 07:29:41;;;;;;;79.50;30.92;;;;;;;13.03;100.00;100358.59;5055569;28;20382;-79
2022/10/15 07:32:06;;;;;;;85.05;29.80;;;;;;;13.03;100.00;100351.19;5041559;28;20045;-80
2022/10/15 07:34:31;;;;;;;76.47;31.00;;;;;;;13.11;100.00;100344.09;5032255;28;20061;-79
2022/10/15 07:36:57;;;;;;;70.78;29.65;;;;;;;13.21;100.00;100339.44;5062048;28;20033;-79
2022/10/15 07:39:22;;;;;;;68.60;29.38;;;;;;;13.51;100.00;100345.69;5021100;28;20040;-79
2022/10/15 07:41:48;;;;;;;74.13;29.98;;;;;;;13.45;100.00;100354.56;5041182;28;20052;-79
2022/10/15 07:44:13;;;;;;;62.85;27.40;;;;;;;13.44;100.00;100352.81;5047607;28;20041;-78
2022/10/15 07:46:39;;;;;;;62.15;28.27;;;;;;;13.50;100.00;100338.47;5054840;28;20040;-79
2022/10/15 07:49:04;;;;;;;65.57;27.30;;;;;;;13.63;100.00;100327.97;5038868;28;20120;-80
2022/10/15 07:51:30;;;;;;;61.30;25.40;;;;;;;13.69;100.00;100324.59;5025458;28;20060;-79
2022/10/15 07:53:55;;;;;;;56.85;24.80;;;;;;;13.81;100.00;100316.97;5040190;28;20086;-78
2022/10/15 07:56:21;;;;;;;54.58;24.10;;;;;;;13.93;100.00;100314.84;5052452;28;20068;-79
2022/10/15 07:58:52;;;;;;;58.28;24.77;;;;;;;13.92;100.00;100310.34;5068884;28;20037;-79
2022/10/15 08:01:19;;;;;;;53.45;23.38;;;;;;;13.83;100.00;100311.31;5050824;28;20106;-79
2022/10/15 08:03:46;;;;;;;53.03;23.02;;;;;;;13.85;100.00;100307.38;5057780;28;20108;-79
2022/10/15 08:06:11;;;;;;;52.28;23.27;;;;;;;13.94;100.00;100316.59;5068973;28;20097;-79
2022/10/15 08:08:37;;;;;;;54.63;22.45;;;;;;;14.06;100.00;100315.31;5068929;28;20040;-82
2022/10/15 08:11:12;;;;;;;43.45;20.05;;;;;;;14.04;100.00;100313.75;5054036;28;20029;-80
2022/10/15 08:13:41;;;;;;;44.67;19.58;;;;;;;13.98;100.00;100313.34;5058935;28;20100;-81
2022/10/15 08:16:08;;;;;;;42.95;18.42;;;;;;;13.97;100.00;100317.13;5040997;28;20025;-81
2022/10/15 08:18:34;;;;;;;44.08;18.15;;;;;;;14.08;100.00;100307.75;5052819;28;20033;-81
2022/10/15 08:21:00;;;;;;;35.33;16.65;;;;;;;14.28;100.00;100308.47;5041980;28;20032;-81
2022/10/15 08:23:26;;;;;;;42.17;16.73;;;;;;;14.43;100.00;100299.63;5060610;28;20112;-79
2022/10/15 08:25:52;;;;;;;35.85;16.30;;;;;;;14.45;100.00;100301.19;5056211;28;20122;-80
2022/10/15 08:28:17;;;;;;;33.35;15.52;;;;;;;14.41;100.00;100305.28;5035252;28;20488;-80
2022/10/15 08:30:42;;;;;;;26.20;13.45;;;;;;;14.40;100.00;100294.47;5041309;28;20082;-80
2022/10/15 08:33:08;;;;;;;33.78;15.25;;;;;;;14.52;100.00;100290.41;5040604;28;20025;-81
2022/10/15 08:35:35;;;;;;;30.08;14.98;;;;;;;14.63;100.00;100297.59;5025360;28;20035;-81
2022/10/15 08:38:01;;;;;;;34.88;14.80;;;;;;;14.71;100.00;100289.38;5058190;28;20147;-81
2022/10/15 08:40:28;;;;;;;31.23;14.38;;;;;;;14.82;100.00;100297.38;5042239;28;20055;-81
2022/10/15 08:42:54;;;;;;;24.13;12.45;;;;;;;14.80;100.00;100290.28;5059364;28;20432;-80
2022/10/15 08:45:44;;;;;;;23.88;11.85;;;;;;;14.90;100.00;100293.75;5041196;28;20120;-79
2022/10/15 08:48:20;;;;;;;26.13;11.50;;;;;;;14.84;100.00;100291.69;5074631;28;20392;-81
2022/10/15 08:50:55;;;;;;;31.77;12.68;;;;;;;14.87;100.00;100292.22;5059149;28;20037;-81
2022/10/15 08:53:24;;;;;;;26.65;12.43;;;;;;;14.83;100.00;100290.81;5054348;28;20057;-79
2022/10/15 08:55:57;;;;;;;25.30;12.40;;;;;;;14.79;100.00;100285.78;5056914;28;20033;-80
2022/10/15 08:58:45;;;;;;;32.53;12.85;;;;;;;14.78;100.00;100282.16;5036625;28;20138;-80
2022/10/15 09:01:33;;;;;;;31.00;14.13;;;;;;;14.83;100.00;100281.69;5055984;28;20033;-81
2022/10/15 09:04:21;;;;;;;31.77;14.68;;;;;;;14.82;100.00;100272.56;5059595;28;20062;-81
2022/10/15 09:06:55;;;;;;;35.58;15.40;;;;;;;14.85;100.00;100269.44;5055929;28;20037;-80
2022/10/15 09:09:37;;;;;;;39.53;16.40;;;;;;;14.80;100.00;100258.06;5057460;28;20060;-81
2022/10/15 09:12:33;;;;;;;33.70;16.48;;;;;;;14.88;100.00;100265.50;5059352;28;20037;-81
2022/10/15 09:14:59;;;;;;;37.65;14.88;;;;;;;14.95;100.00;100251.94;5055440;28;20032;-81
2022/10/15 09:17:30;;;;;;;33.55;14.52;;;;;;;14.98;100.00;100262.63;5056555;28;20053;-80
2022/10/15 09:19:56;;;;;;;29.95;13.10;;;;;;;15.00;100.00;100257.81;5055699;28;20619;-80
2022/10/15 09:22:29;;;;;;;31.80;14.57;;;;;;;14.99;100.00;100256.09;5039530;28;20053;-81
2022/10/15 09:24:55;;;;;;;32.20;14.50;;;;;;;15.05;100.00;100259.06;5071835;28;20036;-81
2022/10/15 09:27:32;;;;;;;30.85;13.98;;;;;;;15.11;100.00;100253.91;5058307;28;20032;-81
2022/10/15 09:30:11;;;;;;;26.83;12.82;;;;;;;15.13;100.00;100262.88;5077207;28;20068;-81
2022/10/15 09:32:46;;;;;;;25.35;11.40;;;;;;;15.12;100.00;100259.25;5065482;28;20033;-82
2022/10/15 09:35:27;;;;;;;28.48;12.02;;;;;;;15.22;100.00;100257.22;5058545;28;20033;-82
2022/10/15 09:37:55;;;;;;;23.98;11.48;;;;;;;15.26;100.00;100252.22;5057856;28;20047;-82
2022/10/15 09:40:54;;;;;;;33.92;11.07;;;;;;;15.33;100.00;100252.41;5061157;28;20033;-82
2022/10/15 09:43:27;;;;;;;18.90;9.77;;;;;;;15.32;100.00;100242.44;5044921;28;20080;-82
2022/10/15 09:45:53;;;;;;;21.90;9.60;;;;;;;15.16;100.00;100246.84;5045460;28;20029;-82
2022/10/15 09:48:19;;;;;;;16.23;7.93;;;;;;;15.14;100.00;100248.91;5076475;28;20041;-82
2022/10/15 09:50:54;;;;;;;26.40;8.93;;;;;;;15.00;100.00;100238.50;5024026;28;20037;-82
2022/10/15 09:53:39;;;;;;;16.80;8.15;;;;;;;14.90;100.00;100241.38;5042896;28;20032;-83
2022/10/15 09:56:15;;;;;;;12.10;7.68;;;;;;;14.74;100.00;100235.78;5063607;28;20498;-84
2022/10/15 09:58:53;;;;;;;18.02;7.63;;;;;;;14.78;100.00;100246.34;5068561;28;20055;-84
2022/10/15 10:01:23;;;;;;;22.15;7.70;;;;;;;14.79;100.00;100239.81;5073983;28;20035;-86
2022/10/15 10:04:27;;;;;;;22.65;7.70;;;;;;;14.69;100.00;100228.91;5054334;28;20040;-85
2022/10/15 10:06:56;;;;;;;26.20;7.95;;;;;;;14.62;100.00;100229.72;5059203;28;20082;-85
2022/10/15 10:09:35;;;;;;;17.60;7.93;;;;;;;14.65;100.00;100223.88;5056621;28;20063;-85
2022/10/15 10:12:07;;;;;;;19.13;8.25;;;;;;;14.61;100.00;100222.47;5057835;28;20025;-85
2022/10/15 10:14:41;;;;;;;16.80;8.30;;;;;;;14.66;100.00;100226.47;5057880;28;20032;-85
2022/10/15 10:17:14;;;;;;;14.10;8.13;;;;;;;14.67;100.00;100230.06;5059063;28;20044;-86
2022/10/15 10:19:40;;;;;;;16.33;7.57;;;;;;;14.67;100.00;100230.06;5058643;28;20037;-85
2022/10/15 10:22:17;;;;;;;22.17;7.53;;;;;;;14.70;100.00;100227.84;5056682;28;20029;-85
2022/10/15 10:24:45;;;;;;;12.52;6.70;;;;;;;14.76;100.00;100219.94;5043911;28;20484;-85
2022/10/15 10:27:22;;;;;;;13.80;6.90;;;;;;;14.82;100.00;100222.94;5039087;28;20037;-85
2022/10/15 10:29:59;;;;;;;14.68;6.28;;;;;;;14.79;100.00;100220.50;5045526;28;20104;-85
2022/10/15 10:32:34;;;;;;;9.63;6.07;;;;;;;14.83;100.00;100221.03;5027745;28;20065;-84
2022/10/15 10:35:02;;;;;;;12.43;6.43;;;;;;;14.89;100.00;100220.38;5021510;28;20034;-85
2022/10/15 10:37:39;;;;;;;9.43;5.68;;;;;;;14.90;100.00;100211.06;5056963;28;20104;-85
2022/10/15 10:40:29;;;;;;;11.02;5.25;;;;;;;15.04;100.00;100226.13;5058638;28;20040;-86
2022/10/15 10:43:15;;;;;;;9.38;4.70;;;;;;;15.02;100.00;100211.63;5038621;28;20060;-85
2022/10/15 10:46:02;;;;;;;8.48;4.55;;;;;;;15.08;100.00;100224.75;5059706;28;20459;-85
2022/10/15 10:48:38;;;;;;;6.40;4.20;;;;;;;15.12;100.00;100219.75;5040165;28;20401;-86
2022/10/15 10:51:11;;;;;;;7.95;4.35;;;;;;;15.08;100.00;100216.47;5049421;28;20033;-85
2022/10/15 10:53:44;;;;;;;8.68;4.53;;;;;;;15.18;100.00;100214.47;5054147;28;20044;-86
2022/10/15 10:56:12;;;;;;;12.00;4.43;;;;;;;15.22;100.00;100212.25;5038140;28;20064;-86
2022/10/15 10:58:37;;;;;;;5.80;4.07;;;;;;;15.34;100.00;100221.91;5058039;28;20044;-85
2022/10/15 11:01:03;;;;;;;7.53;4.45;;;;;;;15.38;100.00;100219.66;5024083;28;20035;-86
2022/10/15 11:03:35;;;;;;;10.30;4.63;;;;;;;15.49;100.00;100204.72;5055007;28;20039;-85
2022/10/15 11:06:31;;;;;;;8.93;3.90;;;;;;;15.52;100.00;100205.22;5067559;28;20058;-84
2022/10/15 11:08:59;;;;;;;5.90;4.13;;;;;;;15.56;100.00;100206.63;5037366;28;20495;-85
2022/10/15 11:11:28;;;;;;;7.35;4.45;;;;;;;15.55;100.00;100201.28;5030521;28;20043;-85